KMNN/MNN METAR and TAF weather

Enter ICAO airport designator
Station Type Date Time Source
KMNN METAR 2019/06/17 05:16 UTC NOAA

KMNN 170516Z AUTO 36006KT 4SM BR FEW004 OVC024 19/18 A2991 RMK AO2 LTG DSNT S AND SW RAE0455 P0000 T01890178


Station Type Date Time Source
KMNN Decoded METAR 2019/06/17 05:16 UTC NOAA

MARION MUNICIPAL AIRPORT, OH, United States (KMNN) 40-37N 83-04W 301M
Jun 17, 2019 - 01:16 AM EDT / 2019.06.17 0516 UTC
Wind: from the N (360 degrees) at 7 MPH (6 KT):0
Visibility: 4 mile(s):0
Sky conditions: overcast
Weather: mist; Lightning observed
Precipitation last hour: A trace
Temperature: 66.0 F (18.9 C)
Dew Point: 64.0 F (17.8 C)
Relative Humidity: 93%
Pressure (altimeter): 29.91 in. Hg (1012 hPa)
ob: KMNN 170516Z AUTO 36006KT 4SM BR FEW004 OVC024 19/18 A2991 RMK AO2 LTG DSNT S AND SW RAE0455 P0000 T01890178
cycle: 5

Station Type Date Time Source
KMNN TAF UTC NOAA

Error!

Example: see airport list